»·PEaware :: N783ST KFUL-KGCN

N783ST :: KFUL-KGCN

FLIGHT INFORMATION

Flight Status: Arrived
Operator: Privately registered:
United States
More flights under this callsign
Pilot: Jereme M. (20698)
Aircraft: SOCATA TBM-900
(TBM9)
More flights by this aircraft type
Origin: KFUL Fullerton Mun
United States
Destination: KGCN Grand Canyon Natl Park
United States
More flights between these airports :: More routes between these airports
Route: +SLI POM DAG GFS V210 PGS
File this flight plan on PilotEdge
Remarks:
Altitude:
(Current/Filed)
31,000ft
Speed:
(Current/Filed)
280kts
Departed: 14-Jul-19 03:05 PM
Arrived: 14-Jul-19 04:23 PM
Distance/Time
Traveled:
313nm/1:17
Distance/Time
To Go:
Arrived

Flight Plot

Page will automatically refresh every two minutes.


Map Options




Map Legend


Flown Route
Filed Route
Departure Airport
Arrival Airport
Navaid (VOR, NDB)
Fix

Horizontal Profiles

Position Reports

Time Latitude Longitude Heading Altitude Ground
Speed
14-Jul-19 14:36 33.871162 -117.978172 259 99ft 0kts
14-Jul-19 14:37 33.871162 -117.978172 259 99ft 0kts
14-Jul-19 14:38 33.871162 -117.978172 259 99ft 0kts
14-Jul-19 14:39 33.871162 -117.978172 259 99ft 0kts
14-Jul-19 14:40 33.871162 -117.978172 259 99ft 0kts
14-Jul-19 14:41 33.871162 -117.978172 259 99ft 0kts
14-Jul-19 14:42 33.871162 -117.978172 259 99ft 0kts
14-Jul-19 14:43 33.871162 -117.978172 259 99ft 0kts
14-Jul-19 14:44 33.871162 -117.978172 259 99ft 0kts
14-Jul-19 14:45 33.871162 -117.978172 259 99ft 0kts
14-Jul-19 14:46 33.871162 -117.978172 259 99ft 0kts
14-Jul-19 14:47 33.871162 -117.978172 259 99ft 0kts
14-Jul-19 14:48 33.871162 -117.978172 259 99ft 0kts
14-Jul-19 14:49 33.871162 -117.978172 259 99ft 0kts
14-Jul-19 14:50 33.871162 -117.978172 259 99ft 0kts
14-Jul-19 14:51 33.871162 -117.978172 259 99ft 0kts
14-Jul-19 14:52 33.871162 -117.978172 259 99ft 0kts
14-Jul-19 14:53 33.871162 -117.978172 259 99ft 0kts
14-Jul-19 14:54 33.871162 -117.978172 259 99ft 0kts
14-Jul-19 14:55 33.871162 -117.978172 259 99ft 0kts
14-Jul-19 14:56 33.871162 -117.978172 259 99ft 0kts
14-Jul-19 14:57 33.871162 -117.978172 259 99ft 0kts
14-Jul-19 14:58 33.871162 -117.978172 259 99ft 0kts
14-Jul-19 14:59 33.871161 -117.978180 259 99ft 0kts
14-Jul-19 15:00 33.871452 -117.978431 347 99ft 0kts
14-Jul-19 15:01 33.871452 -117.978431 347 99ft 0kts
14-Jul-19 15:02 33.872093 -117.976902 77 99ft 11kts
14-Jul-19 15:03 33.872582 -117.974844 39 99ft 0kts
14-Jul-19 15:04 33.872039 -117.979745 256 99ft 93kts
14-Jul-19 15:05 33.851345 -118.000664 143 1852ft 139kts
14-Jul-19 15:06 33.816468 -117.953372 131 2658ft 198kts
14-Jul-19 15:07 33.788642 -117.914856 131 5561ft 144kts
14-Jul-19 15:08 33.762456 -117.877106 132 7871ft 150kts
14-Jul-19 15:10 33.726684 -117.825143 131 8046ft 238kts
14-Jul-19 15:11 33.670962 -117.803647 229 8012ft 253kts
14-Jul-19 15:12 33.657326 -117.886529 261 8019ft 255kts
14-Jul-19 15:13 33.654842 -117.970489 306 8136ft 252kts
14-Jul-19 15:14 33.700832 -117.995388 328 11792ft 170kts
14-Jul-19 15:15 33.742355 -118.024411 324 14151ft 176kts
14-Jul-19 15:16 33.786366 -118.050168 11 16354ft 191kts
14-Jul-19 15:17 33.830047 -118.012667 38 18665ft 197kts
14-Jul-19 15:18 33.874278 -117.972492 38 20940ft 203kts
14-Jul-19 15:19 33.920213 -117.930853 38 23156ft 211kts
14-Jul-19 15:20 33.967700 -117.887692 37 25356ft 218kts
14-Jul-19 15:21 34.017124 -117.842770 35 27344ft 227kts
14-Jul-19 15:22 34.068248 -117.796246 33 29151ft 235kts
14-Jul-19 15:23 34.114140 -117.738896 45 30771ft 243kts
14-Jul-19 15:24 34.163849 -117.672039 45 31060ft 295kts
14-Jul-19 15:25 34.222279 -117.593135 46 31040ft 326kts
14-Jul-19 15:25 34.273569 -117.523744 46 31033ft 336kts
14-Jul-19 15:27 34.346999 -117.424175 46 31030ft 340kts
14-Jul-19 15:28 34.410307 -117.338102 46 31028ft 341kts
14-Jul-19 15:28 34.461989 -117.267660 46 31025ft 341kts
14-Jul-19 15:30 34.535681 -117.166990 46 31026ft 341kts
14-Jul-19 15:31 34.598453 -117.081007 46 31065ft 339kts
14-Jul-19 15:31 34.650637 -117.009358 46 31169ft 337kts
14-Jul-19 15:32 34.712780 -116.923864 46 31295ft 336kts
14-Jul-19 15:34 34.785231 -116.823896 46 31252ft 340kts
14-Jul-19 15:34 34.837670 -116.751371 46 31135ft 343kts
14-Jul-19 15:35 34.901061 -116.663496 46 31020ft 343kts
14-Jul-19 15:36 34.960602 -116.573484 62 31008ft 343kts
14-Jul-19 15:37 34.977502 -116.460147 82 31022ft 341kts
14-Jul-19 15:38 34.991355 -116.347629 82 31022ft 341kts
14-Jul-19 15:39 35.005597 -116.232675 82 31017ft 340kts
14-Jul-19 15:40 35.019686 -116.118019 82 31010ft 340kts
14-Jul-19 15:41 35.033681 -116.003226 82 30976ft 340kts
14-Jul-19 15:42 35.047520 -115.888800 81 30945ft 339kts
14-Jul-19 15:43 35.061257 -115.774258 81 30946ft 337kts
14-Jul-19 15:44 35.074786 -115.660536 81 30946ft 336kts
14-Jul-19 15:45 35.088235 -115.546553 81 30947ft 336kts
14-Jul-19 15:46 35.101488 -115.433305 81 30946ft 335kts
14-Jul-19 15:47 35.114520 -115.321039 82 30944ft 335kts
14-Jul-19 15:48 35.127583 -115.207539 82 30943ft 334kts
14-Jul-19 15:49 35.155007 -115.099617 68 30915ft 334kts
14-Jul-19 15:50 35.187968 -114.993208 68 30879ft 334kts
14-Jul-19 15:51 35.220838 -114.886700 68 30862ft 333kts
14-Jul-19 15:52 35.253454 -114.780627 68 30862ft 331kts
14-Jul-19 15:53 35.285867 -114.674825 68 30863ft 331kts
14-Jul-19 15:54 35.318178 -114.568957 68 30863ft 330kts
14-Jul-19 15:55 35.350340 -114.463182 68 30863ft 330kts
14-Jul-19 15:56 35.382361 -114.357489 68 30875ft 330kts
14-Jul-19 15:57 35.414181 -114.252067 69 30893ft 329kts
14-Jul-19 15:58 35.445912 -114.146549 69 30986ft 327kts
14-Jul-19 15:59 35.477382 -114.041527 69 31094ft 326kts
14-Jul-19 16:00 35.508811 -113.936289 69 30129ft 325kts
14-Jul-19 16:01 35.539562 -113.832819 69 28711ft 319kts
14-Jul-19 16:02 35.569866 -113.730558 70 27317ft 318kts
14-Jul-19 16:03 35.600013 -113.628453 70 25916ft 316kts
14-Jul-19 16:04 35.627603 -113.526069 74 24501ft 313kts
14-Jul-19 16:05 35.651143 -113.427304 73 24145ft 284kts
14-Jul-19 16:06 35.674437 -113.330582 74 24161ft 306kts
14-Jul-19 16:07 35.699026 -113.228161 74 24157ft 313kts
14-Jul-19 16:08 35.723667 -113.125162 74 22670ft 310kts
14-Jul-19 16:09 35.747845 -113.023596 75 21052ft 303kts
14-Jul-19 16:10 35.771262 -112.924789 75 19505ft 298kts
14-Jul-19 16:11 35.794264 -112.827381 75 18007ft 294kts
14-Jul-19 16:12 35.816914 -112.731030 75 16517ft 292kts
14-Jul-19 16:13 35.838698 -112.638012 74 14555ft 279kts
14-Jul-19 16:14 35.858901 -112.551439 74 12630ft 270kts
14-Jul-19 16:15 35.878846 -112.465713 73 10948ft 254kts
14-Jul-19 16:16 35.896440 -112.389811 73 10855ft 214kts
14-Jul-19 16:17 35.913175 -112.319763 71 9333ft 217kts
14-Jul-19 16:18 35.933203 -112.245478 73 7982ft 248kts
14-Jul-19 16:19 35.962652 -112.168926 45 7640ft 235kts
14-Jul-19 16:20 35.994972 -112.124427 101 7276ft 131kts
14-Jul-19 16:21 35.968959 -112.129870 217 6868ft 103kts
14-Jul-19 16:22 35.953604 -112.144396 150 6607ft 0kts
14-Jul-19 16:23 35.953604 -112.144396 150 6607ft 0kts
14-Jul-19 16:24 35.953909 -112.142814 83 6607ft 11kts
14-Jul-19 16:25 35.954005 -112.142534 38 6607ft 0kts
14-Jul-19 16:26 35.954005 -112.142534 38 6607ft 0kts
14-Jul-19 16:27 35.954005 -112.142534 38 6607ft 0kts
14-Jul-19 16:28 35.954005 -112.142534 38 6607ft 0kts
14-Jul-19 16:29 35.954005 -112.142534 38 6607ft 0kts
14-Jul-19 16:30 35.954005 -112.142534 38 6607ft 0kts
14-Jul-19 16:31 35.954005 -112.142534 38 6607ft 0kts

Navigation Log

Ident Type
Flight plan parsing failed, navigation log unavailable